Time;durP1;ratioP1;P1;durP2;ratioP2;P2;SDS_P1;SDS_P2;PMS_P1;PMS_P2;Temp;Humidity;BMP_temperature;BMP_pressure;BME280_temperature;BME280_humidity;BME280_pressure;Samples;Min_cycle;Max_cycle;Signal;HPM_P1;HPM_P2
2022/11/07 00:00:13;;;;;;;11.10;6.07;;;8.80;99.90;;;;;;4160042;28;20613;-77
2022/11/07 00:02:15;;;;;;;8.47;5.30;;;8.80;99.90;;;;;;4163624;28;20517;-77
2022/11/07 00:04:17;;;;;;;10.43;5.90;;;8.80;99.90;;;;;;4161630;28;20553;-77
2022/11/07 00:06:19;;;;;;;8.90;5.47;;;8.90;99.90;;;;;;4157061;28;20517;-78
2022/11/07 00:08:30;;;;;;;9.93;6.13;;;8.90;99.90;;;;;;4159480;28;20460;-77
2022/11/07 00:10:32;;;;;;;9.17;5.67;;;8.90;99.90;;;;;;4161428;28;20458;-76
2022/11/07 00:12:35;;;;;;;9.97;6.10;;;9.00;99.90;;;;;;4163184;28;20514;-77
2022/11/07 00:14:38;;;;;;;10.53;5.30;;;9.00;99.90;;;;;;4160150;28;21225;-77
2022/11/07 00:16:41;;;;;;;10.73;5.77;;;9.00;99.90;;;;;;4151836;28;20574;-76
2022/11/07 00:18:42;;;;;;;9.03;5.27;;;9.00;99.90;;;;;;4159614;28;20207;-77
2022/11/07 00:20:44;;;;;;;8.37;5.23;;;9.10;99.90;;;;;;4159480;28;20541;-78
2022/11/07 00:22:46;;;;;;;8.83;5.40;;;9.00;99.90;;;;;;4160585;28;20207;-77
2022/11/07 00:24:48;;;;;;;10.37;5.90;;;9.00;99.90;;;;;;4159426;28;20463;-77
2022/11/07 00:26:50;;;;;;;8.13;5.20;;;9.00;99.90;;;;;;4167188;28;20483;-78
2022/11/07 00:28:51;;;;;;;8.90;5.93;;;9.00;99.90;;;;;;4158104;28;20473;-77
2022/11/07 00:30:57;;;;;;;9.37;5.57;;;9.00;99.90;;;;;;4163903;28;20560;-77
2022/11/07 00:32:59;;;;;;;8.73;5.37;;;9.10;99.90;;;;;;4162394;28;20856;-78
2022/11/07 00:35:01;;;;;;;10.57;5.93;;;9.00;99.90;;;;;;4163838;28;20286;-77
2022/11/07 00:37:03;;;;;;;8.57;5.27;;;9.00;99.90;;;;;;4169183;28;20483;-78
2022/11/07 00:39:05;;;;;;;8.50;5.53;;;8.90;99.90;;;;;;4163883;28;20541;-76
2022/11/07 00:41:07;;;;;;;8.50;5.30;;;8.90;99.90;;;;;;4165822;28;20795;-77
2022/11/07 00:43:09;;;;;;;8.97;5.33;;;8.90;99.90;;;;;;4158760;28;20462;-78
2022/11/07 00:45:12;;;;;;;9.30;5.23;;;8.90;99.90;;;;;;4164717;28;20495;-77
2022/11/07 00:47:15;;;;;;;9.97;5.73;;;8.90;99.90;;;;;;4155745;28;20849;-77
2022/11/07 00:49:17;;;;;;;7.80;5.03;;;8.90;99.90;;;;;;4161879;28;20496;-77
2022/11/07 00:51:21;;;;;;;8.43;5.10;;;8.90;99.90;;;;;;4162002;28;20478;-76
2022/11/07 00:53:23;;;;;;;8.93;5.63;;;8.90;99.90;;;;;;4163901;28;20449;-77
2022/11/07 00:55:27;;;;;;;8.97;5.60;;;8.90;99.90;;;;;;4163520;28;20496;-76
2022/11/07 00:57:28;;;;;;;9.50;5.60;;;8.90;99.90;;;;;;4160793;28;20527;-77
2022/11/07 00:59:30;;;;;;;9.53;5.40;;;8.90;99.90;;;;;;4159990;28;20492;-77
2022/11/07 01:01:34;;;;;;;8.43;5.00;;;8.90;99.90;;;;;;4167977;28;20478;-77
2022/11/07 01:05:57;;;;;;;8.97;5.30;;;8.90;99.90;;;;;;4167635;28;20564;-77
2022/11/07 01:07:59;;;;;;;9.27;5.40;;;8.80;99.90;;;;;;4169888;28;20448;-77
2022/11/07 01:10:01;;;;;;;10.57;5.53;;;8.80;99.90;;;;;;4161695;28;20450;-77
2022/11/07 01:12:04;;;;;;;8.80;5.07;;;8.70;99.90;;;;;;4162098;28;20581;-76
2022/11/07 01:14:08;;;;;;;9.00;5.60;;;8.80;99.90;;;;;;4164345;28;20468;-77
2022/11/07 01:16:10;;;;;;;9.33;5.20;;;8.70;99.90;;;;;;4167200;28;20576;-78
2022/11/07 01:18:12;;;;;;;8.87;5.37;;;8.70;99.90;;;;;;4165677;28;20450;-77
2022/11/07 01:20:16;;;;;;;12.10;6.07;;;8.70;99.90;;;;;;4164884;28;21173;-77
2022/11/07 01:22:17;;;;;;;9.73;5.20;;;8.70;99.90;;;;;;4167949;28;20528;-77
2022/11/07 01:24:19;;;;;;;10.23;5.67;;;8.70;99.90;;;;;;4157056;28;20749;-76
2022/11/07 01:26:21;;;;;;;9.97;5.63;;;8.60;99.90;;;;;;4160117;28;20531;-76
2022/11/07 01:28:23;;;;;;;8.83;5.50;;;8.60;99.90;;;;;;4171470;28;20464;-76
2022/11/07 01:30:25;;;;;;;8.43;5.43;;;8.60;99.90;;;;;;4166579;28;20934;-77
2022/11/07 01:32:27;;;;;;;8.97;5.50;;;8.60;99.90;;;;;;4170364;28;20486;-77
2022/11/07 01:34:29;;;;;;;9.20;5.67;;;8.50;99.90;;;;;;4166305;28;20505;-76
2022/11/07 01:36:32;;;;;;;10.77;6.10;;;8.50;99.90;;;;;;4158137;28;20483;-76
2022/11/07 01:38:35;;;;;;;11.87;7.20;;;8.50;99.90;;;;;;4165136;28;20457;-77
2022/11/07 01:41:19;;;;;;;10.87;5.70;;;8.50;99.90;;;;;;4163650;28;20473;-77
2022/11/07 01:43:06;;;;;;;9.73;5.37;;;8.40;99.90;;;;;;4164248;28;20470;-77
2022/11/07 01:45:18;;;;;;;9.47;5.67;;;8.40;99.90;;;;;;4163995;28;20468;-77
2022/11/07 01:47:21;;;;;;;8.77;5.60;;;8.40;99.90;;;;;;4167033;28;20475;-77
2022/11/07 01:49:26;;;;;;;10.53;5.53;;;8.40;99.90;;;;;;4161392;28;20461;-77
2022/11/07 01:51:29;;;;;;;9.93;5.83;;;8.40;99.90;;;;;;4160898;28;20941;-78
2022/11/07 01:53:34;;;;;;;10.30;5.53;;;8.30;99.90;;;;;;4160854;28;20894;-76
2022/11/07 01:55:36;;;;;;;9.77;5.43;;;8.30;99.90;;;;;;4161746;28;20473;-77
2022/11/07 01:57:42;;;;;;;8.80;5.40;;;8.30;99.90;;;;;;4170060;28;20452;-78
2022/11/07 01:59:44;;;;;;;9.97;5.67;;;8.20;99.90;;;;;;4160111;28;20447;-77
2022/11/07 02:01:46;;;;;;;11.40;5.73;;;8.30;99.90;;;;;;4158731;28;20513;-78
2022/11/07 02:03:51;;;;;;;8.53;5.00;;;8.70;99.90;;;;;;4160982;28;20984;-77
2022/11/07 02:05:57;;;;;;;9.43;5.70;;;8.20;99.90;;;;;;4161767;28;20498;-77
2022/11/07 02:07:59;;;;;;;9.93;5.80;;;8.20;99.90;;;;;;4167782;28;20458;-77
2022/11/07 02:10:03;;;;;;;11.53;5.80;;;8.20;99.90;;;;;;4162248;28;20547;-77
2022/11/07 02:12:06;;;;;;;9.70;5.20;;;8.20;99.90;;;;;;4166810;28;20481;-77
2022/11/07 02:14:07;;;;;;;10.27;5.87;;;8.20;99.90;;;;;;4162738;28;20489;-77
2022/11/07 02:16:10;;;;;;;8.80;5.50;;;8.20;99.90;;;;;;4165228;28;20478;-77
2022/11/07 02:18:14;;;;;;;11.77;5.33;;;8.10;99.90;;;;;;4165396;28;20461;-78
2022/11/07 02:20:16;;;;;;;8.60;5.30;;;8.10;99.90;;;;;;4165021;28;20452;-77
2022/11/07 02:22:27;;;;;;;8.10;5.27;;;8.10;99.90;;;;;;4169301;28;20448;-77
2022/11/07 02:24:33;;;;;;;8.90;5.10;;;8.10;99.90;;;;;;4164392;28;20579;-76
2022/11/07 02:26:37;;;;;;;8.50;5.57;;;8.10;99.90;;;;;;4161546;28;20477;-77
2022/11/07 02:28:39;;;;;;;10.30;5.70;;;8.10;99.90;;;;;;4165864;28;20487;-77
2022/11/07 02:30:41;;;;;;;8.40;5.27;;;8.10;99.90;;;;;;4165771;28;20493;-77
2022/11/07 02:32:43;;;;;;;9.43;5.47;;;7.80;99.90;;;;;;4169391;28;20572;-78
2022/11/07 02:34:44;;;;;;;7.13;4.83;;;8.10;99.90;;;;;;4169554;28;20552;-77
2022/11/07 02:36:46;;;;;;;8.27;5.13;;;8.00;99.90;;;;;;4166997;28;20526;-76
2022/11/07 02:38:56;;;;;;;9.43;5.30;;;8.10;99.90;;;;;;4169230;28;20555;-77
2022/11/07 02:41:02;;;;;;;9.73;5.23;;;8.00;99.90;;;;;;4167169;28;20460;-77
2022/11/07 02:43:06;;;;;;;8.03;5.13;;;8.00;99.90;;;;;;4170721;28;20998;-77
2022/11/07 02:45:10;;;;;;;8.60;4.97;;;8.30;99.90;;;;;;4164193;28;20449;-77
2022/11/07 02:47:12;;;;;;;7.97;4.70;;;8.00;99.90;;;;;;4169883;28;20495;-77
2022/11/07 02:49:14;;;;;;;8.43;5.37;;;8.00;99.90;;;;;;4169849;28;20459;-77
2022/11/07 02:51:16;;;;;;;8.57;5.30;;;8.40;99.90;;;;;;4166165;28;21054;-77
2022/11/07 02:53:18;;;;;;;9.33;5.20;;;8.90;99.90;;;;;;4169752;28;20520;-77
2022/11/07 02:55:20;;;;;;;10.90;5.30;;;8.00;99.90;;;;;;4162209;28;21009;-78
2022/11/07 02:57:23;;;;;;;7.60;5.10;;;8.00;99.90;;;;;;4160356;28;21015;-76
2022/11/07 02:59:25;;;;;;;7.67;4.80;;;8.00;99.90;;;;;;4156172;28;20560;-77
2022/11/07 03:01:27;;;;;;;9.63;5.00;;;8.00;99.90;;;;;;4167518;28;20462;-77
2022/11/07 03:03:29;;;;;;;7.87;5.00;;;8.10;99.90;;;;;;4183434;28;20520;-77
2022/11/07 03:05:31;;;;;;;8.23;4.40;;;8.10;99.90;;;;;;4184592;28;21227;-76
2022/11/07 03:07:33;;;;;;;9.57;5.17;;;8.10;99.90;;;;;;4167527;28;20488;-77
2022/11/07 03:09:35;;;;;;;7.60;4.50;;;8.10;99.90;;;;;;4166544;28;20484;-78
2022/11/07 03:11:37;;;;;;;10.30;5.10;;;8.10;99.90;;;;;;4160965;28;20461;-76
2022/11/07 03:13:40;;;;;;;8.50;5.07;;;8.60;99.90;;;;;;4165518;28;20553;-77
2022/11/07 03:15:42;;;;;;;8.10;4.97;;;8.20;99.90;;;;;;4162438;28;20577;-77
2022/11/07 03:17:46;;;;;;;7.97;5.03;;;8.20;99.90;;;;;;4166160;28;20469;-77
2022/11/07 03:19:48;;;;;;;8.77;5.50;;;8.20;99.90;;;;;;4163217;28;20469;-76
2022/11/07 03:21:50;;;;;;;7.30;5.00;;;8.20;99.90;;;;;;4163231;28;20484;-76
2022/11/07 03:23:52;;;;;;;8.77;5.43;;;8.30;99.90;;;;;;4165730;28;20464;-77
2022/11/07 03:25:54;;;;;;;7.67;4.70;;;8.30;99.90;;;;;;4166933;28;20512;-77
2022/11/07 03:27:56;;;;;;;8.93;4.90;;;8.30;99.90;;;;;;4169380;28;20465;-77
2022/11/07 03:29:59;;;;;;;9.43;4.70;;;8.30;99.90;;;;;;4163151;28;20537;-77
2022/11/07 03:32:01;;;;;;;7.67;5.10;;;8.30;99.90;;;;;;4167000;28;20481;-78
2022/11/07 03:34:03;;;;;;;7.80;4.43;;;8.60;99.90;;;;;;4167805;28;20467;-77
2022/11/07 03:36:06;;;;;;;8.07;4.87;;;8.40;99.90;;;;;;4169209;28;20512;-76
2022/11/07 03:38:07;;;;;;;8.67;4.93;;;8.40;99.90;;;;;;4160951;28;20472;-77
2022/11/07 03:40:10;;;;;;;8.50;4.80;;;8.50;99.90;;;;;;4167693;28;20544;-76
2022/11/07 03:42:14;;;;;;;6.80;4.50;;;8.40;99.90;;;;;;4162764;28;20505;-78
2022/11/07 03:44:17;;;;;;;8.73;4.00;;;8.50;99.90;;;;;;4165466;28;20508;-77
2022/11/07 03:46:20;;;;;;;8.33;4.43;;;8.50;99.90;;;;;;4164334;28;20505;-76
2022/11/07 03:48:22;;;;;;;9.80;3.97;;;8.50;99.90;;;;;;4152086;28;20504;-77
2022/11/07 03:50:24;;;;;;;7.07;4.23;;;8.60;99.90;;;;;;4168123;28;20499;-77
2022/11/07 03:52:25;;;;;;;7.07;4.07;;;8.50;99.90;;;;;;4169889;28;20542;-77
2022/11/07 03:54:27;;;;;;;7.03;3.83;;;8.60;99.90;;;;;;4165476;28;20457;-77
2022/11/07 03:56:29;;;;;;;7.73;5.00;;;8.60;99.90;;;;;;4170668;28;20570;-77
2022/11/07 03:58:31;;;;;;;8.00;4.30;;;8.60;99.90;;;;;;4170335;28;20985;-77
2022/11/07 04:00:33;;;;;;;7.07;4.00;;;8.70;99.90;;;;;;4166512;28;20509;-77
2022/11/07 04:02:36;;;;;;;5.70;3.63;;;8.70;99.90;;;;;;4168377;28;20484;-77
2022/11/07 04:04:38;;;;;;;9.27;4.10;;;8.90;99.90;;;;;;4168271;28;20458;-77
2022/11/07 04:06:41;;;;;;;6.27;3.70;;;8.70;99.90;;;;;;4169089;28;21098;-77
2022/11/07 04:08:43;;;;;;;5.00;3.50;;;8.80;99.90;;;;;;4163984;28;20563;-77
2022/11/07 04:10:44;;;;;;;8.20;3.87;;;8.80;99.90;;;;;;4165062;28;20310;-76
2022/11/07 04:17:27;;;;;;;5.03;3.50;;;8.80;99.90;;;;;;4167583;28;21008;-77
2022/11/07 04:19:30;;;;;;;5.17;3.27;;;8.80;99.90;;;;;;4170228;28;20553;-76
2022/11/07 04:21:32;;;;;;;5.40;3.03;;;8.80;99.90;;;;;;4168497;28;20238;-76
2022/11/07 04:23:34;;;;;;;7.93;4.00;;;8.80;99.90;;;;;;4167062;28;20191;-76
2022/11/07 04:27:55;;;;;;;5.53;2.90;;;8.80;99.90;;;;;;4160476;28;20463;-77
2022/11/07 04:29:57;;;;;;;6.03;3.47;;;8.80;99.90;;;;;;4171373;28;20848;-77
2022/11/07 04:31:59;;;;;;;5.63;3.30;;;8.80;99.90;;;;;;4165447;28;20461;-77
2022/11/07 04:34:01;;;;;;;5.33;3.13;;;8.80;99.90;;;;;;4167509;28;20468;-77
2022/11/07 04:36:05;;;;;;;5.43;3.23;;;8.80;99.90;;;;;;4166363;28;20486;-77
2022/11/07 04:38:06;;;;;;;4.80;3.20;;;8.80;99.90;;;;;;4166812;28;20946;-77
2022/11/07 04:40:10;;;;;;;6.70;3.10;;;8.70;99.90;;;;;;4170534;28;21068;-77
2022/11/07 04:42:12;;;;;;;12.70;5.77;;;8.80;99.90;;;;;;4168814;28;21082;-77
2022/11/07 04:44:13;;;;;;;6.67;3.63;;;8.80;99.90;;;;;;4162918;28;20456;-77
2022/11/07 04:46:16;;;;;;;5.83;3.10;;;8.70;99.90;;;;;;4161778;28;20932;-77
2022/11/07 04:48:18;;;;;;;5.07;3.13;;;8.80;99.90;;;;;;4166872;28;20210;-76
2022/11/07 04:50:20;;;;;;;5.13;3.20;;;8.80;99.90;;;;;;4164732;28;20448;-77
2022/11/07 04:52:23;;;;;;;4.13;2.80;;;8.80;99.90;;;;;;4160404;28;20489;-77
2022/11/07 04:54:25;;;;;;;5.33;3.10;;;8.80;99.90;;;;;;4158140;28;20560;-77
2022/11/07 04:56:27;;;;;;;6.17;3.17;;;8.80;99.90;;;;;;4160613;28;20563;-77
2022/11/07 04:58:29;;;;;;;5.73;3.17;;;8.80;99.90;;;;;;4170139;28;20551;-77
2022/11/07 05:00:31;;;;;;;6.53;3.13;;;8.80;99.90;;;;;;4165072;28;20490;-77
2022/11/07 05:02:33;;;;;;;4.33;3.03;;;8.80;99.90;;;;;;4165589;28;20485;-76
2022/11/07 05:04:34;;;;;;;4.50;2.93;;;8.80;99.90;;;;;;4164507;28;20467;-77
2022/11/07 05:06:37;;;;;;;6.37;3.53;;;8.80;99.90;;;;;;4164230;28;20491;-77
2022/11/07 05:08:40;;;;;;;4.53;2.97;;;8.80;99.90;;;;;;4158033;28;20531;-77
2022/11/07 05:10:42;;;;;;;6.10;3.10;;;8.80;99.90;;;;;;4165325;28;20481;-76
2022/11/07 05:12:44;;;;;;;5.13;2.80;;;8.70;99.90;;;;;;4162061;28;20493;-77
2022/11/07 05:14:46;;;;;;;5.27;2.93;;;8.90;99.90;;;;;;4169743;28;20464;-76
2022/11/07 05:16:50;;;;;;;4.93;3.00;;;8.70;99.90;;;;;;4156995;28;20591;-76
2022/11/07 05:18:52;;;;;;;5.07;2.97;;;8.70;99.90;;;;;;4169765;28;20462;-76
2022/11/07 05:20:54;;;;;;;4.10;3.00;;;8.70;99.90;;;;;;4171766;28;20453;-76
2022/11/07 05:23:14;;;;;;;4.07;2.83;;;8.70;99.90;;;;;;4164788;28;20955;-76
2022/11/07 05:25:17;;;;;;;5.03;3.17;;;8.70;99.90;;;;;;4157693;28;20452;-76
2022/11/07 05:27:20;;;;;;;4.80;2.70;;;8.70;99.90;;;;;;4160090;28;20442;-77
2022/11/07 05:29:22;;;;;;;6.30;3.27;;;8.70;99.90;;;;;;4165593;28;20547;-77
2022/11/07 05:31:24;;;;;;;4.83;3.00;;;8.60;99.90;;;;;;4156856;28;20523;-76
2022/11/07 05:33:26;;;;;;;3.93;2.80;;;8.60;99.90;;;;;;4154038;28;20568;-77
2022/11/07 05:35:28;;;;;;;5.37;2.77;;;8.60;99.90;;;;;;4164445;28;20494;-77
2022/11/07 05:37:30;;;;;;;3.77;2.60;;;8.60;99.90;;;;;;4161521;28;20454;-78
2022/11/07 05:39:32;;;;;;;5.20;2.67;;;8.60;99.90;;;;;;4161186;28;21015;-76
2022/11/07 05:41:36;;;;;;;5.30;3.00;;;8.60;99.90;;;;;;4166562;28;20482;-77
2022/11/07 05:43:38;;;;;;;5.23;2.77;;;8.60;99.90;;;;;;4157013;28;20534;-79
2022/11/07 05:45:40;;;;;;;5.73;2.70;;;8.60;99.90;;;;;;4160805;28;20465;-76
2022/11/07 05:47:42;;;;;;;5.13;3.00;;;8.60;99.90;;;;;;4165674;28;20549;-75
2022/11/07 05:49:43;;;;;;;5.03;2.70;;;8.60;99.90;;;;;;4165973;28;20468;-76
2022/11/07 05:51:45;;;;;;;4.73;2.90;;;8.50;99.90;;;;;;4169536;28;20458;-78
2022/11/07 05:53:50;;;;;;;4.57;2.80;;;8.50;99.90;;;;;;4167820;28;20564;-77
2022/11/07 05:55:53;;;;;;;4.57;2.40;;;8.50;99.90;;;;;;4162864;28;21264;-77
2022/11/07 05:57:56;;;;;;;4.80;2.30;;;8.50;99.90;;;;;;4170970;28;20461;-78
2022/11/07 05:59:58;;;;;;;4.47;2.93;;;8.50;99.90;;;;;;4169379;28;20450;-80
2022/11/07 06:02:00;;;;;;;5.63;2.30;;;8.50;99.90;;;;;;4163692;28;20504;-79
2022/11/07 06:04:03;;;;;;;4.03;2.37;;;8.50;99.90;;;;;;4168671;28;20452;-80
2022/11/07 06:06:05;;;;;;;4.40;2.53;;;8.50;99.90;;;;;;4159244;28;20490;-78
2022/11/07 06:08:10;;;;;;;3.87;2.43;;;8.50;99.90;;;;;;4166657;28;20493;-79
2022/11/07 06:10:12;;;;;;;4.00;2.60;;;8.50;99.90;;;;;;4168061;28;20489;-80
2022/11/07 06:12:13;;;;;;;3.73;2.43;;;8.50;99.90;;;;;;4166732;28;20446;-78
2022/11/07 06:14:17;;;;;;;5.57;2.90;;;8.50;99.90;;;;;;4161788;28;20490;-80
2022/11/07 06:16:38;;;;;;;4.03;2.73;;;8.40;99.90;;;;;;4149633;28;20483;-78
2022/11/07 06:18:54;;;;;;;3.53;2.40;;;8.40;99.90;;;;;;4150610;28;20442;-78
2022/11/07 06:20:56;;;;;;;4.70;2.40;;;8.40;99.90;;;;;;4158585;28;20821;-79
2022/11/07 06:22:59;;;;;;;3.60;2.30;;;8.40;99.90;;;;;;4161824;28;21000;-79
2022/11/07 06:25:03;;;;;;;3.07;2.40;;;8.40;99.90;;;;;;4158510;28;20481;-79
2022/11/07 06:27:05;;;;;;;2.80;2.17;;;8.40;99.90;;;;;;4164655;28;21095;-79
2022/11/07 06:29:07;;;;;;;5.37;2.37;;;8.40;99.90;;;;;;4157578;28;20446;-79
2022/11/07 06:31:11;;;;;;;3.90;2.60;;;8.50;99.90;;;;;;4161611;28;21287;-79
2022/11/07 06:33:15;;;;;;;4.63;2.73;;;8.50;99.90;;;;;;4155703;28;20477;-79
2022/11/07 06:35:17;;;;;;;3.63;2.33;;;8.50;99.90;;;;;;4160336;28;20959;-79
2022/11/07 06:37:19;;;;;;;4.50;2.53;;;8.60;99.90;;;;;;4158185;28;20489;-79
2022/11/07 06:39:21;;;;;;;4.13;2.43;;;8.60;99.90;;;;;;4163836;28;20668;-79
2022/11/07 06:41:23;;;;;;;5.37;2.80;;;8.60;99.90;;;;;;4158671;28;20462;-79
2022/11/07 06:43:24;;;;;;;4.70;2.60;;;8.60;99.90;;;;;;4158064;28;20458;-79
2022/11/07 06:45:26;;;;;;;3.73;2.67;;;8.70;99.90;;;;;;4158776;28;20525;-79
2022/11/07 06:47:30;;;;;;;3.77;2.40;;;8.70;99.90;;;;;;4161836;28;20994;-79
2022/11/07 06:49:31;;;;;;;3.53;2.10;;;8.70;99.90;;;;;;4168491;28;20453;-79
2022/11/07 06:51:33;;;;;;;4.23;2.33;;;8.80;99.90;;;;;;4163799;28;21034;-79
2022/11/07 06:53:35;;;;;;;6.10;2.70;;;8.80;99.90;;;;;;4164102;28;21448;-79
2022/11/07 06:55:38;;;;;;;3.07;2.20;;;8.80;99.90;;;;;;4160156;28;20994;-79
2022/11/07 06:57:40;;;;;;;3.40;2.30;;;8.80;99.90;;;;;;4161714;28;20500;-79
2022/11/07 06:59:42;;;;;;;3.37;2.13;;;8.80;99.90;;;;;;4164520;28;20840;-78
2022/11/07 07:01:44;;;;;;;3.90;2.50;;;8.80;99.90;;;;;;4163382;28;20560;-79
2022/11/07 07:03:47;;;;;;;3.40;2.40;;;8.80;99.90;;;;;;4167173;28;20820;-79
2022/11/07 07:05:49;;;;;;;3.47;2.13;;;8.90;99.90;;;;;;4168185;28;20550;-79
2022/11/07 07:07:51;;;;;;;4.30;2.50;;;8.90;99.90;;;;;;4169096;28;20548;-79
2022/11/07 07:09:53;;;;;;;2.93;1.90;;;8.90;99.90;;;;;;4164711;28;20468;-79
2022/11/07 07:11:54;;;;;;;3.63;2.00;;;9.10;99.90;;;;;;4160230;28;20939;-79
2022/11/07 07:13:56;;;;;;;3.53;2.30;;;9.40;99.90;;;;;;4160477;28;20569;-78
2022/11/07 07:15:59;;;;;;;5.60;2.50;;;9.00;99.90;;;;;;4160994;28;20974;-79
2022/11/07 07:18:02;;;;;;;3.47;2.10;;;9.00;99.90;;;;;;4158191;28;20268;-79
2022/11/07 07:20:08;;;;;;;3.63;1.97;;;9.00;99.90;;;;;;4175842;28;20465;-78
2022/11/07 07:22:12;;;;;;;4.50;1.80;;;9.00;99.90;;;;;;4177416;28;21128;-79
2022/11/07 07:24:14;;;;;;;3.03;1.90;;;9.10;99.90;;;;;;4161937;28;20500;-78
2022/11/07 07:26:17;;;;;;;4.60;2.03;;;9.40;99.90;;;;;;4158212;28;20474;-79
2022/11/07 07:28:19;;;;;;;4.07;1.90;;;9.10;99.90;;;;;;4160847;28;20764;-79
2022/11/07 07:30:22;;;;;;;3.80;2.20;;;9.30;99.90;;;;;;4162122;28;20437;-78
2022/11/07 07:32:27;;;;;;;5.03;2.17;;;9.20;99.90;;;;;;4159314;28;20472;-78
2022/11/07 07:34:35;;;;;;;4.27;2.33;;;9.00;99.90;;;;;;4146300;28;20473;-79
2022/11/07 07:36:39;;;;;;;5.47;1.93;;;9.40;99.90;;;;;;4165552;28;20487;-79
2022/11/07 07:38:42;;;;;;;3.23;2.00;;;9.20;99.90;;;;;;4173347;28;20211;-80
2022/11/07 07:40:44;;;;;;;3.73;1.90;;;9.60;99.90;;;;;;4179440;28;20473;-78
2022/11/07 07:42:46;;;;;;;2.70;1.80;;;9.30;99.90;;;;;;4164384;28;20230;-78
2022/11/07 07:44:48;;;;;;;3.20;1.90;;;9.30;99.90;;;;;;4158605;28;20207;-78
2022/11/07 07:46:53;;;;;;;4.23;2.03;;;9.30;99.90;;;;;;4159999;28;20282;-78
2022/11/07 07:48:55;;;;;;;3.40;2.10;;;9.30;99.90;;;;;;4165563;28;20475;-78
2022/11/07 07:51:12;;;;;;;3.87;2.00;;;9.30;99.90;;;;;;4165145;28;20282;-76
2022/11/07 07:53:15;;;;;;;4.50;1.73;;;9.40;99.90;;;;;;4150251;28;20223;-78
2022/11/07 07:55:18;;;;;;;2.73;1.90;;;9.40;99.90;;;;;;4155416;28;20295;-79
2022/11/07 07:57:19;;;;;;;3.77;2.00;;;9.40;99.90;;;;;;4160460;28;20203;-78
2022/11/07 07:59:21;;;;;;;2.40;1.80;;;9.40;99.90;;;;;;4161964;28;20217;-77
2022/11/07 08:01:23;;;;;;;1.93;1.57;;;9.50;99.90;;;;;;4167222;28;20234;-76
2022/11/07 08:03:26;;;;;;;2.57;1.70;;;9.50;99.90;;;;;;4166267;28;20460;-77
2022/11/07 08:05:28;;;;;;;4.40;1.70;;;9.60;99.90;;;;;;4168911;28;20246;-76
2022/11/07 08:07:31;;;;;;;2.87;1.70;;;9.60;99.90;;;;;;4163060;28;20237;-77
2022/11/07 08:09:35;;;;;;;3.13;1.60;;;9.60;99.90;;;;;;4159734;28;20292;-76
2022/11/07 08:11:37;;;;;;;2.87;1.93;;;9.70;99.90;;;;;;4165205;28;20211;-76
2022/11/07 08:13:39;;;;;;;2.00;1.47;;;9.70;99.90;;;;;;4165799;28;20215;-76
2022/11/07 08:15:41;;;;;;;3.97;2.00;;;9.70;99.90;;;;;;4160581;28;20310;-78
2022/11/07 08:17:44;;;;;;;2.57;1.70;;;9.80;99.90;;;;;;4156703;28;20290;-77
2022/11/07 08:19:46;;;;;;;3.00;1.40;;;9.80;99.90;;;;;;4159334;28;20203;-78
2022/11/07 08:21:47;;;;;;;1.80;1.40;;;9.80;99.90;;;;;;4169481;28;20576;-79
2022/11/07 08:23:52;;;;;;;2.30;1.63;;;9.80;99.90;;;;;;4162147;28;20660;-77
2022/11/07 08:25:57;;;;;;;2.83;1.80;;;9.90;99.90;;;;;;4165300;28;20246;-77
2022/11/07 08:27:59;;;;;;;4.23;1.77;;;9.90;99.90;;;;;;4166787;28;20792;-78
2022/11/07 08:30:01;;;;;;;3.10;1.67;;;10.00;99.90;;;;;;4158472;28;20209;-78
2022/11/07 08:32:03;;;;;;;3.03;1.60;;;10.00;99.90;;;;;;4167003;28;20717;-78
2022/11/07 08:34:05;;;;;;;2.03;1.57;;;10.00;99.90;;;;;;4159836;28;20608;-78
2022/11/07 08:36:08;;;;;;;3.20;1.70;;;10.10;99.90;;;;;;4165529;28;20276;-78
2022/11/07 08:38:10;;;;;;;2.13;1.67;;;10.10;99.90;;;;;;4166019;28;21857;-78
2022/11/07 08:40:13;;;;;;;2.73;1.63;;;10.10;99.90;;;;;;4161250;28;20696;-78
2022/11/07 08:42:16;;;;;;;3.27;1.70;;;10.20;99.90;;;;;;4159898;28;20283;-78
2022/11/07 08:44:18;;;;;;;1.80;1.50;;;10.30;99.90;;;;;;4160656;28;20211;-78
2022/11/07 08:46:19;;;;;;;2.10;1.50;;;10.30;99.90;;;;;;4162887;28;20232;-77
2022/11/07 08:48:22;;;;;;;2.23;1.50;;;10.30;99.90;;;;;;4159917;28;20227;-77
2022/11/07 08:50:24;;;;;;;2.77;1.47;;;10.40;99.90;;;;;;4162981;28;21201;-78
2022/11/07 08:52:25;;;;;;;2.00;1.40;;;10.40;99.90;;;;;;4164394;28;20240;-77
2022/11/07 08:54:31;;;;;;;2.40;1.47;;;10.50;99.90;;;;;;4159692;28;20227;-78
2022/11/07 08:56:33;;;;;;;3.93;2.10;;;10.60;99.90;;;;;;4157224;28;20570;-78
2022/11/07 08:58:37;;;;;;;2.90;1.67;;;10.60;99.90;;;;;;4162555;28;20235;-78
2022/11/07 09:00:39;;;;;;;3.27;2.03;;;10.60;99.90;;;;;;4162910;28;20235;-79
2022/11/07 09:02:42;;;;;;;3.83;1.70;;;10.70;99.90;;;;;;4164305;28;20284;-78
2022/11/07 09:04:44;;;;;;;2.70;1.80;;;10.70;99.90;;;;;;4159636;28;20201;-80
2022/11/07 09:06:46;;;;;;;2.17;1.53;;;10.70;99.90;;;;;;4163375;28;20232;-79
2022/11/07 09:08:48;;;;;;;4.87;1.80;;;10.80;99.90;;;;;;4162232;28;20237;-80
2022/11/07 09:10:50;;;;;;;4.47;1.77;;;10.80;99.90;;;;;;4162396;28;20208;-79
2022/11/07 09:12:52;;;;;;;3.53;1.50;;;10.80;99.90;;;;;;4156738;28;20199;-78
2022/11/07 09:14:55;;;;;;;3.77;1.77;;;10.90;99.90;;;;;;4165401;28;20232;-79
2022/11/07 09:16:58;;;;;;;2.87;1.73;;;10.90;99.90;;;;;;4161208;28;20377;-78
2022/11/07 09:19:00;;;;;;;3.07;1.70;;;11.00;99.90;;;;;;4164545;28;20628;-79
2022/11/07 09:21:02;;;;;;;3.63;1.90;;;11.00;99.90;;;;;;4160985;28;20211;-81
2022/11/07 09:23:04;;;;;;;3.10;1.40;;;11.10;99.90;;;;;;4158867;28;20213;-80
2022/11/07 09:25:07;;;;;;;3.37;1.80;;;11.20;99.90;;;;;;4176014;28;20205;-81
2022/11/07 09:27:09;;;;;;;2.67;1.53;;;11.20;99.90;;;;;;4174197;28;20261;-79
2022/11/07 09:29:11;;;;;;;1.90;1.37;;;11.30;99.90;;;;;;4159381;28;20241;-78
2022/11/07 09:31:14;;;;;;;2.37;1.40;;;11.40;99.90;;;;;;4168488;28;20201;-80
2022/11/07 09:33:18;;;;;;;5.10;1.50;;;11.40;99.90;;;;;;4158633;28;20217;-79
2022/11/07 09:35:20;;;;;;;4.37;1.37;;;11.50;99.90;;;;;;4164580;28;20733;-79
2022/11/07 09:37:22;;;;;;;2.87;1.43;;;11.60;99.90;;;;;;4162969;28;20202;-77
2022/11/07 09:39:24;;;;;;;3.03;1.17;;;11.60;99.90;;;;;;4164684;28;20299;-78
2022/11/07 09:41:39;;;;;;;2.27;1.33;;;11.70;99.90;;;;;;4162722;28;20214;-78
2022/11/07 09:44:06;;;;;;;3.27;1.50;;;11.70;99.90;;;;;;4164691;28;20195;-77
2022/11/07 09:46:18;;;;;;;3.03;1.40;;;11.80;99.90;;;;;;4159911;28;20221;-79
2022/11/07 09:48:25;;;;;;;3.77;1.47;;;11.90;99.90;;;;;;4159299;28;20210;-79
2022/11/07 09:50:30;;;;;;;3.07;1.30;;;11.90;99.90;;;;;;4160126;28;20217;-78
2022/11/07 09:52:40;;;;;;;2.63;1.37;;;12.00;99.90;;;;;;4161078;28;20301;-78
2022/11/07 09:54:46;;;;;;;2.80;1.50;;;12.10;99.90;;;;;;4158680;28;20321;-78
2022/11/07 09:56:48;;;;;;;3.40;1.20;;;12.10;99.90;;;;;;4163201;28;20596;-79
2022/11/07 09:58:53;;;;;;;2.97;1.20;;;12.20;99.90;;;;;;4158311;28;20214;-79
2022/11/07 10:01:00;;;;;;;6.50;1.47;;;12.20;99.90;;;;;;4162797;28;20242;-78
2022/11/07 10:03:03;;;;;;;3.30;1.40;;;12.30;99.90;;;;;;4159264;28;20214;-78
2022/11/07 10:05:06;;;;;;;2.40;1.10;;;12.30;99.90;;;;;;4156723;28;20205;-78
2022/11/07 10:07:16;;;;;;;4.43;1.57;;;12.30;99.90;;;;;;4174367;28;20260;-78
2022/11/07 10:09:26;;;;;;;3.83;1.40;;;12.40;99.90;;;;;;4160212;28;20234;-78
2022/11/07 10:11:34;;;;;;;3.20;0.90;;;12.50;99.90;;;;;;4158809;28;20309;-78
2022/11/07 10:13:56;;;;;;;5.20;1.40;;;12.50;99.90;;;;;;4161979;28;20210;-78
2022/11/07 10:16:06;;;;;;;2.47;1.07;;;12.70;99.90;;;;;;4156029;28;20230;-78
2022/11/07 10:18:22;;;;;;;4.93;1.23;;;12.70;99.90;;;;;;4160961;28;20203;-78
2022/11/07 10:20:39;;;;;;;1.77;1.00;;;12.70;99.90;;;;;;4157319;28;20268;-78
2022/11/07 10:22:53;;;;;;;1.73;1.07;;;12.80;99.90;;;;;;4167589;28;20195;-78
2022/11/07 10:25:07;;;;;;;4.17;1.63;;;12.80;99.90;;;;;;4164367;28;20202;-82
2022/11/07 10:27:10;;;;;;;2.53;1.10;;;12.90;99.90;;;;;;4158844;28;20258;-79
2022/11/07 10:29:14;;;;;;;6.27;1.23;;;12.90;99.90;;;;;;4160829;28;20293;-78
2022/11/07 10:31:16;;;;;;;5.07;1.50;;;12.90;99.90;;;;;;4160423;28;20893;-78
2022/11/07 10:33:37;;;;;;;2.70;1.30;;;13.00;99.90;;;;;;4164403;28;20632;-78
2022/11/07 10:35:45;;;;;;;3.17;1.37;;;13.10;99.90;;;;;;4151468;28;20350;-78
2022/11/07 10:37:54;;;;;;;6.00;1.90;;;13.10;99.90;;;;;;4157635;28;20210;-79
2022/11/07 10:39:56;;;;;;;3.43;1.10;;;13.20;99.90;;;;;;4164018;28;20210;-79
2022/11/07 10:42:04;;;;;;;3.90;1.40;;;13.30;99.90;;;;;;4162679;28;20700;-78
2022/11/07 10:44:10;;;;;;;4.57;1.40;;;13.30;99.90;;;;;;4164658;28;20238;-78
2022/11/07 10:46:17;;;;;;;2.73;1.23;;;13.40;99.90;;;;;;4166457;28;20231;-79
2022/11/07 10:48:19;;;;;;;4.90;1.50;;;13.50;99.90;;;;;;4154446;28;20220;-77
2022/11/07 10:50:24;;;;;;;2.30;1.20;;;13.50;99.90;;;;;;4161123;28;20278;-77
2022/11/07 10:52:27;;;;;;;2.80;1.20;;;13.50;99.90;;;;;;4162673;28;20206;-80
2022/11/07 10:54:30;;;;;;;3.27;1.20;;;13.60;99.90;;;;;;4159704;28;20223;-80
2022/11/07 10:56:44;;;;;;;3.33;1.20;;;13.60;99.90;;;;;;4164884;28;20241;-79